sensor_id;sensor_type;location;lat;lon;timestamp;pressure;altitude;pressure_sealevel;temperature;humidity
17764;BME280;22245;52.832;13.816;2023-02-03T00:02:04;101946.75;;;0.65;79.25
17764;BME280;22245;52.832;13.816;2023-02-03T00:05:26;101931.75;;;0.70;78.77
17764;BME280;22245;52.832;13.816;2023-02-03T00:08:51;101933.41;;;0.75;78.75
17764;BME280;22245;52.832;13.816;2023-02-03T00:12:13;101921.16;;;0.77;78.10
17764;BME280;22245;52.832;13.816;2023-02-03T00:15:34;101908.81;;;0.80;78.98
17764;BME280;22245;52.832;13.816;2023-02-03T00:18:56;101887.63;;;0.88;79.38
17764;BME280;22245;52.832;13.816;2023-02-03T00:22:18;101869.06;;;0.96;78.77
17764;BME280;22245;52.832;13.816;2023-02-03T00:25:40;101868.81;;;1.05;79.87
17764;BME280;22245;52.832;13.816;2023-02-03T00:29:02;101857.16;;;1.15;79.83
17764;BME280;22245;52.832;13.816;2023-02-03T00:32:24;101836.72;;;1.27;79.34
17764;BME280;22245;52.832;13.816;2023-02-03T00:35:45;101817.13;;;1.39;79.15
17764;BME280;22245;52.832;13.816;2023-02-03T00:39:07;101790.56;;;1.50;79.67
17764;BME280;22245;52.832;13.816;2023-02-03T00:42:30;101789.34;;;1.62;79.76
17764;BME280;22245;52.832;13.816;2023-02-03T00:45:51;101796.94;;;1.71;79.33
17764;BME280;22245;52.832;13.816;2023-02-03T00:49:13;101802.69;;;1.82;78.89
17764;BME280;22245;52.832;13.816;2023-02-03T00:52:35;101798.91;;;1.93;78.80
17764;BME280;22245;52.832;13.816;2023-02-03T00:55:57;101787.22;;;2.01;78.90
17764;BME280;22245;52.832;13.816;2023-02-03T00:59:20;101790.47;;;2.10;78.39
17764;BME280;22245;52.832;13.816;2023-02-03T01:02:41;101792.78;;;2.19;78.64
17764;BME280;22245;52.832;13.816;2023-02-03T01:06:08;101777.56;;;2.29;77.91
17764;BME280;22245;52.832;13.816;2023-02-03T01:09:32;101783.44;;;2.37;77.81
17764;BME280;22245;52.832;13.816;2023-02-03T01:12:54;101777.03;;;2.44;78.32
17764;BME280;22245;52.832;13.816;2023-02-03T01:16:19;101767.28;;;2.48;78.21
17764;BME280;22245;52.832;13.816;2023-02-03T01:19:40;101765.28;;;2.55;78.63
17764;BME280;22245;52.832;13.816;2023-02-03T01:23:02;101752.81;;;2.60;78.72
17764;BME280;22245;52.832;13.816;2023-02-03T01:26:24;101773.59;;;2.68;78.65
17764;BME280;22245;52.832;13.816;2023-02-03T01:29:46;101768.19;;;2.72;79.28
17764;BME280;22245;52.832;13.816;2023-02-03T01:33:09;101749.72;;;2.74;79.96
17764;BME280;22245;52.832;13.816;2023-02-03T01:36:32;101763.63;;;2.78;79.80
17764;BME280;22245;52.832;13.816;2023-02-03T01:39:54;101751.19;;;2.81;80.41
17764;BME280;22245;52.832;13.816;2023-02-03T01:43:28;101750.28;;;2.82;80.24
17764;BME280;22245;52.832;13.816;2023-02-03T01:46:52;101743.94;;;2.88;80.45
17764;BME280;22245;52.832;13.816;2023-02-03T01:50:17;101732.50;;;2.89;80.77
17764;BME280;22245;52.832;13.816;2023-02-03T01:53:41;101718.44;;;2.90;80.81
17764;BME280;22245;52.832;13.816;2023-02-03T01:57:05;101717.47;;;2.93;81.49
17764;BME280;22245;52.832;13.816;2023-02-03T02:00:31;101705.13;;;2.95;81.70
17764;BME280;22245;52.832;13.816;2023-02-03T02:03:54;101691.97;;;2.95;81.77
17764;BME280;22245;52.832;13.816;2023-02-03T02:07:19;101708.66;;;2.94;81.95
17764;BME280;22245;52.832;13.816;2023-02-03T02:10:40;101691.03;;;2.96;81.92
17764;BME280;22245;52.832;13.816;2023-02-03T02:14:02;101683.06;;;2.97;82.20
17764;BME280;22245;52.832;13.816;2023-02-03T02:17:46;101677.75;;;2.99;81.59
17764;BME280;22245;52.832;13.816;2023-02-03T02:25:32;101646.97;;;3.01;81.50
17764;BME280;22245;52.832;13.816;2023-02-03T02:29:33;101632.09;;;3.00;81.24
17764;BME280;22245;52.832;13.816;2023-02-03T02:33:10;101616.25;;;3.01;81.99
17764;BME280;22245;52.832;13.816;2023-02-03T02:36:43;101600.53;;;3.00;81.51
17764;BME280;22245;52.832;13.816;2023-02-03T02:40:17;101585.66;;;2.99;81.30
17764;BME280;22245;52.832;13.816;2023-02-03T02:43:43;101594.38;;;2.99;81.08
17764;BME280;22245;52.832;13.816;2023-02-03T02:47:11;101587.50;;;2.97;81.44
17764;BME280;22245;52.832;13.816;2023-02-03T02:50:40;101563.81;;;2.97;80.71
17764;BME280;22245;52.832;13.816;2023-02-03T02:54:06;101553.34;;;2.95;80.88
17764;BME280;22245;52.832;13.816;2023-02-03T02:57:33;101543.72;;;2.94;81.32
17764;BME280;22245;52.832;13.816;2023-02-03T03:00:56;101534.13;;;2.93;80.54
17764;BME280;22245;52.832;13.816;2023-02-03T03:04:22;101531.56;;;2.92;80.63
17764;BME280;22245;52.832;13.816;2023-02-03T03:07:50;101523.84;;;2.87;80.62
17764;BME280;22245;52.832;13.816;2023-02-03T03:11:15;101520.56;;;2.82;80.85
17764;BME280;22245;52.832;13.816;2023-02-03T03:14:42;101503.06;;;2.81;81.20
17764;BME280;22245;52.832;13.816;2023-02-03T03:18:12;101492.59;;;2.79;80.83
17764;BME280;22245;52.832;13.816;2023-02-03T03:21:38;101460.22;;;2.77;80.74
17764;BME280;22245;52.832;13.816;2023-02-03T03:25:08;101449.78;;;2.75;80.87
17764;BME280;22245;52.832;13.816;2023-02-03T03:28:35;101436.69;;;2.74;80.70
17764;BME280;22245;52.832;13.816;2023-02-03T03:32:00;101433.19;;;2.73;80.91
17764;BME280;22245;52.832;13.816;2023-02-03T03:35:23;101424.53;;;2.71;81.01
17764;BME280;22245;52.832;13.816;2023-02-03T03:38:54;101422.81;;;2.70;81.32
17764;BME280;22245;52.832;13.816;2023-02-03T03:42:22;101403.59;;;2.68;80.84
17764;BME280;22245;52.832;13.816;2023-02-03T03:45:52;101392.16;;;2.69;81.67
17764;BME280;22245;52.832;13.816;2023-02-03T03:49:17;101386.00;;;2.70;81.70
17764;BME280;22245;52.832;13.816;2023-02-03T03:52:42;101371.91;;;2.71;81.56
17764;BME280;22245;52.832;13.816;2023-02-03T03:56:09;101361.41;;;2.71;81.78
17764;BME280;22245;52.832;13.816;2023-02-03T03:59:36;101360.38;;;2.74;81.92
17764;BME280;22245;52.832;13.816;2023-02-03T04:03:01;101361.25;;;2.74;81.84
17764;BME280;22245;52.832;13.816;2023-02-03T04:06:24;101355.09;;;2.75;81.60
17764;BME280;22245;52.832;13.816;2023-02-03T04:09:46;101348.91;;;2.77;81.87
17764;BME280;22245;52.832;13.816;2023-02-03T04:13:09;101347.19;;;2.75;82.30
17764;BME280;22245;52.832;13.816;2023-02-03T04:16:33;101315.91;;;2.69;82.63
17764;BME280;22245;52.832;13.816;2023-02-03T04:19:55;101299.09;;;2.72;82.67
17764;BME280;22245;52.832;13.816;2023-02-03T04:23:16;101297.34;;;2.72;82.48
17764;BME280;22245;52.832;13.816;2023-02-03T04:26:38;101295.56;;;2.73;82.84
17764;BME280;22245;52.832;13.816;2023-02-03T04:30:00;101306.69;;;2.80;82.98
17764;BME280;22245;52.832;13.816;2023-02-03T04:33:23;101309.22;;;2.81;82.75
17764;BME280;22245;52.832;13.816;2023-02-03T04:36:45;101295.03;;;2.85;82.93
17764;BME280;22245;52.832;13.816;2023-02-03T04:40:07;101269.50;;;2.87;83.49
17764;BME280;22245;52.832;13.816;2023-02-03T04:43:29;101249.31;;;2.88;83.09
17764;BME280;22245;52.832;13.816;2023-02-03T04:46:51;101241.41;;;2.88;83.52
17764;BME280;22245;52.832;13.816;2023-02-03T04:50:14;101236.78;;;2.93;83.35
17764;BME280;22245;52.832;13.816;2023-02-03T04:53:36;101206.94;;;2.94;83.59
17764;BME280;22245;52.832;13.816;2023-02-03T04:56:58;101200.69;;;2.97;83.68
17764;BME280;22245;52.832;13.816;2023-02-03T05:00:20;101231.47;;;2.95;84.30
17764;BME280;22245;52.832;13.816;2023-02-03T05:03:41;101223.31;;;3.01;85.33
17764;BME280;22245;52.832;13.816;2023-02-03T05:07:04;101217.69;;;3.09;85.25
17764;BME280;22245;52.832;13.816;2023-02-03T05:10:26;101202.69;;;3.11;84.74
17764;BME280;22245;52.832;13.816;2023-02-03T05:13:48;101184.13;;;3.14;85.15
17764;BME280;22245;52.832;13.816;2023-02-03T05:17:09;101197.97;;;3.17;85.62
17764;BME280;22245;52.832;13.816;2023-02-03T05:20:31;101193.38;;;3.23;86.25
17764;BME280;22245;52.832;13.816;2023-02-03T05:23:54;101173.78;;;3.28;86.78
17764;BME280;22245;52.832;13.816;2023-02-03T05:27:16;101155.75;;;3.38;87.70
17764;BME280;22245;52.832;13.816;2023-02-03T05:30:37;101148.59;;;3.42;88.17
17764;BME280;22245;52.832;13.816;2023-02-03T05:33:59;101135.88;;;3.50;89.18
17764;BME280;22245;52.832;13.816;2023-02-03T05:37:21;101131.16;;;3.57;89.68
17764;BME280;22245;52.832;13.816;2023-02-03T05:40:46;101117.53;;;3.66;90.56
17764;BME280;22245;52.832;13.816;2023-02-03T05:44:26;101102.97;;;3.76;90.63
17764;BME280;22245;52.832;13.816;2023-02-03T05:47:48;101084.97;;;3.85;90.97
17764;BME280;22245;52.832;13.816;2023-02-03T05:51:10;101093.34;;;3.93;91.38
17764;BME280;22245;52.832;13.816;2023-02-03T05:54:32;101083.34;;;4.00;91.72
17764;BME280;22245;52.832;13.816;2023-02-03T05:57:55;101055.81;;;4.05;92.24
17764;BME280;22245;52.832;13.816;2023-02-03T06:01:17;101051.81;;;4.14;92.91
17764;BME280;22245;52.832;13.816;2023-02-03T06:04:39;101044.44;;;4.21;92.92
17764;BME280;22245;52.832;13.816;2023-02-03T06:08:01;101041.31;;;4.30;93.81
17764;BME280;22245;52.832;13.816;2023-02-03T06:11:23;101028.56;;;4.39;94.10
17764;BME280;22245;52.832;13.816;2023-02-03T06:14:47;101016.81;;;4.44;94.32
17764;BME280;22245;52.832;13.816;2023-02-03T06:18:09;101013.66;;;4.54;94.05
17764;BME280;22245;52.832;13.816;2023-02-03T06:21:30;101015.88;;;4.61;94.81
17764;BME280;22245;52.832;13.816;2023-02-03T06:24:52;101001.34;;;4.70;94.93
17764;BME280;22245;52.832;13.816;2023-02-03T06:28:14;101003.63;;;4.76;95.15
17764;BME280;22245;52.832;13.816;2023-02-03T06:31:37;100994.22;;;4.87;95.14
17764;BME280;22245;52.832;13.816;2023-02-03T06:34:59;100988.34;;;4.98;95.65
17764;BME280;22245;52.832;13.816;2023-02-03T06:38:21;100991.66;;;5.01;96.00
17764;BME280;22245;52.832;13.816;2023-02-03T06:41:42;100976.31;;;5.08;96.54
17764;BME280;22245;52.832;13.816;2023-02-03T06:45:05;100971.25;;;5.19;97.00
17764;BME280;22245;52.832;13.816;2023-02-03T06:48:29;100963.81;;;5.26;97.13
17764;BME280;22245;52.832;13.816;2023-02-03T06:51:51;100961.59;;;5.34;97.49
17764;BME280;22245;52.832;13.816;2023-02-03T06:55:12;100963.66;;;5.44;97.79
17764;BME280;22245;52.832;13.816;2023-02-03T06:58:34;100938.56;;;5.51;98.05
17764;BME280;22245;52.832;13.816;2023-02-03T07:01:56;100933.78;;;5.58;98.58
17764;BME280;22245;52.832;13.816;2023-02-03T07:05:19;100922.81;;;5.64;98.81
17764;BME280;22245;52.832;13.816;2023-02-03T07:08:41;100919.59;;;5.73;98.88
17764;BME280;22245;52.832;13.816;2023-02-03T07:12:02;100905.06;;;5.80;98.92
17764;BME280;22245;52.832;13.816;2023-02-03T07:15:24;100899.50;;;5.85;99.12
17764;BME280;22245;52.832;13.816;2023-02-03T07:18:46;100894.56;;;5.93;98.89
17764;BME280;22245;52.832;13.816;2023-02-03T07:22:10;100887.19;;;5.99;98.82
17764;BME280;22245;52.832;13.816;2023-02-03T07:25:31;100887.88;;;6.02;99.19
17764;BME280;22245;52.832;13.816;2023-02-03T07:28:53;100868.16;;;6.08;99.22
17764;BME280;22245;52.832;13.816;2023-02-03T07:32:15;100858.13;;;6.13;99.34
17764;BME280;22245;52.832;13.816;2023-02-03T07:35:36;100849.66;;;6.21;99.09
17764;BME280;22245;52.832;13.816;2023-02-03T07:39:00;100859.00;;;6.27;99.06
17764;BME280;22245;52.832;13.816;2023-02-03T07:42:22;100832.88;;;6.35;99.18
17764;BME280;22245;52.832;13.816;2023-02-03T07:45:45;100836.28;;;6.37;99.17
17764;BME280;22245;52.832;13.816;2023-02-03T07:49:07;100829.00;;;6.41;99.27
17764;BME280;22245;52.832;13.816;2023-02-03T07:52:29;100834.94;;;6.44;99.05
17764;BME280;22245;52.832;13.816;2023-02-03T07:55:51;100836.63;;;6.45;99.47
17764;BME280;22245;52.832;13.816;2023-02-03T07:59:12;100831.03;;;6.50;99.51
17764;BME280;22245;52.832;13.816;2023-02-03T08:02:34;100812.50;;;6.50;99.73
17764;BME280;22245;52.832;13.816;2023-02-03T08:05:56;100789.44;;;6.52;99.75
17764;BME280;22245;52.832;13.816;2023-02-03T08:09:17;100793.25;;;6.61;99.27
17764;BME280;22245;52.832;13.816;2023-02-03T08:12:40;100773.56;;;6.65;99.65
17764;BME280;22245;52.832;13.816;2023-02-03T08:16:05;100760.13;;;6.68;99.09
17764;BME280;22245;52.832;13.816;2023-02-03T08:19:27;100745.00;;;6.70;98.86
17764;BME280;22245;52.832;13.816;2023-02-03T08:22:49;100755.28;;;6.75;99.17
17764;BME280;22245;52.832;13.816;2023-02-03T08:26:10;100739.25;;;6.76;98.88
17764;BME280;22245;52.832;13.816;2023-02-03T08:29:33;100740.88;;;6.79;99.07
17764;BME280;22245;52.832;13.816;2023-02-03T08:32:56;100731.75;;;6.83;98.66
17764;BME280;22245;52.832;13.816;2023-02-03T08:36:17;100737.78;;;6.85;98.57
17764;BME280;22245;52.832;13.816;2023-02-03T08:39:39;100720.84;;;6.88;98.44
17764;BME280;22245;52.832;13.816;2023-02-03T08:43:01;100715.22;;;6.92;98.58
17764;BME280;22245;52.832;13.816;2023-02-03T08:46:24;100691.50;;;6.91;98.63
17764;BME280;22245;52.832;13.816;2023-02-03T08:49:46;100688.88;;;6.91;98.58
17764;BME280;22245;52.832;13.816;2023-02-03T08:53:08;100685.78;;;6.97;98.63
17764;BME280;22245;52.832;13.816;2023-02-03T08:56:30;100666.06;;;7.01;98.25
17764;BME280;22245;52.832;13.816;2023-02-03T08:59:53;100656.44;;;7.00;98.58
17764;BME280;22245;52.832;13.816;2023-02-03T09:03:16;100635.88;;;7.04;98.38
17764;BME280;22245;52.832;13.816;2023-02-03T09:06:38;100647.44;;;7.03;98.43
17764;BME280;22245;52.832;13.816;2023-02-03T09:10:00;100635.97;;;7.02;98.21
17764;BME280;22245;52.832;13.816;2023-02-03T09:13:22;100636.28;;;6.98;98.45
17764;BME280;22245;52.832;13.816;2023-02-03T09:16:43;100627.31;;;7.00;98.55
17764;BME280;22245;52.832;13.816;2023-02-03T09:20:08;100645.84;;;7.00;98.96
17764;BME280;22245;52.832;13.816;2023-02-03T09:23:32;100633.34;;;7.02;98.71
17764;BME280;22245;52.832;13.816;2023-02-03T09:26:54;100631.31;;;7.06;99.02
17764;BME280;22245;52.832;13.816;2023-02-03T09:30:16;100621.09;;;7.13;98.46
17764;BME280;22245;52.832;13.816;2023-02-03T09:33:38;100620.16;;;7.14;98.90
17764;BME280;22245;52.832;13.816;2023-02-03T09:37:01;100598.13;;;7.13;98.43
17764;BME280;22245;52.832;13.816;2023-02-03T09:40:26;100586.22;;;7.19;98.77
17764;BME280;22245;52.832;13.816;2023-02-03T09:43:53;100596.00;;;7.18;98.18
17764;BME280;22245;52.832;13.816;2023-02-03T09:47:21;100590.22;;;7.24;98.12
17764;BME280;22245;52.832;13.816;2023-02-03T09:50:45;100586.75;;;7.24;98.32
17764;BME280;22245;52.832;13.816;2023-02-03T09:54:15;100585.06;;;7.23;98.40
17764;BME280;22245;52.832;13.816;2023-02-03T09:57:43;100581.97;;;7.29;97.95
17764;BME280;22245;52.832;13.816;2023-02-03T10:01:09;100584.25;;;7.34;97.75
17764;BME280;22245;52.832;13.816;2023-02-03T10:04:37;100566.44;;;7.36;97.64
17764;BME280;22245;52.832;13.816;2023-02-03T10:08:06;100583.28;;;7.35;97.13
17764;BME280;22245;52.832;13.816;2023-02-03T10:11:44;100594.50;;;7.38;97.66
17764;BME280;22245;52.832;13.816;2023-02-03T10:15:29;100582.00;;;7.41;97.43
17764;BME280;22245;52.832;13.816;2023-02-03T10:18:56;100582.97;;;7.39;96.68
17764;BME280;22245;52.832;13.816;2023-02-03T10:22:20;100568.75;;;7.41;97.00
17764;BME280;22245;52.832;13.816;2023-02-03T10:25:43;100602.13;;;7.43;96.16
17764;BME280;22245;52.832;13.816;2023-02-03T10:29:17;100611.59;;;7.34;97.67
17764;BME280;22245;52.832;13.816;2023-02-03T10:32:39;100647.00;;;7.33;97.00
17764;BME280;22245;52.832;13.816;2023-02-03T10:36:05;100689.47;;;7.32;95.05
17764;BME280;22245;52.832;13.816;2023-02-03T10:39:31;100708.16;;;7.30;90.48
17764;BME280;22245;52.832;13.816;2023-02-03T10:42:54;100647.44;;;7.27;84.97
17764;BME280;22245;52.832;13.816;2023-02-03T10:46:37;100639.50;;;7.27;84.99
17764;BME280;22245;52.832;13.816;2023-02-03T10:50:03;100633.47;;;7.25;86.21
17764;BME280;22245;52.832;13.816;2023-02-03T10:53:33;100643.13;;;7.26;86.04
17764;BME280;22245;52.832;13.816;2023-02-03T10:57:01;100635.16;;;7.26;86.10
17764;BME280;22245;52.832;13.816;2023-02-03T11:00:27;100620.84;;;7.29;86.65
17764;BME280;22245;52.832;13.816;2023-02-03T11:03:57;100632.06;;;7.32;86.52
17764;BME280;22245;52.832;13.816;2023-02-03T11:07:24;100625.16;;;7.30;86.22
17764;BME280;22245;52.832;13.816;2023-02-03T11:10:46;100626.50;;;7.24;86.48
17764;BME280;22245;52.832;13.816;2023-02-03T11:14:15;100643.63;;;7.31;85.95
17764;BME280;22245;52.832;13.816;2023-02-03T11:17:42;100637.69;;;7.28;84.13
17764;BME280;22245;52.832;13.816;2023-02-03T11:21:12;100652.13;;;7.23;81.80
17764;BME280;22245;52.832;13.816;2023-02-03T11:24:37;100623.53;;;7.16;79.74
17764;BME280;22245;52.832;13.816;2023-02-03T11:28:03;100631.09;;;7.09;79.05
17764;BME280;22245;52.832;13.816;2023-02-03T11:31:27;100640.72;;;7.10;79.77
17764;BME280;22245;52.832;13.816;2023-02-03T11:34:56;100642.41;;;7.11;79.81
17764;BME280;22245;52.832;13.816;2023-02-03T11:38:29;100668.81;;;7.00;79.87
17764;BME280;22245;52.832;13.816;2023-02-03T11:41:52;100657.47;;;6.98;80.63
17764;BME280;22245;52.832;13.816;2023-02-03T11:45:23;100679.31;;;7.01;81.18
17764;BME280;22245;52.832;13.816;2023-02-03T11:48:58;100680.03;;;7.03;81.63
17764;BME280;22245;52.832;13.816;2023-02-03T11:52:52;100679.94;;;7.05;81.67
17764;BME280;22245;52.832;13.816;2023-02-03T11:56:26;100675.69;;;7.02;82.20
17764;BME280;22245;52.832;13.816;2023-02-03T11:59:57;100668.50;;;7.04;82.91
17764;BME280;22245;52.832;13.816;2023-02-03T12:03:46;100658.03;;;7.03;82.77
17764;BME280;22245;52.832;13.816;2023-02-03T12:07:27;100665.75;;;7.06;82.98
17764;BME280;22245;52.832;13.816;2023-02-03T12:11:01;100653.13;;;7.09;82.32
17764;BME280;22245;52.832;13.816;2023-02-03T12:14:38;100668.41;;;7.06;81.53
17764;BME280;22245;52.832;13.816;2023-02-03T12:18:12;100691.66;;;7.14;80.61
17764;BME280;22245;52.832;13.816;2023-02-03T12:21:43;100667.19;;;7.23;79.27
17764;BME280;22245;52.832;13.816;2023-02-03T12:25:17;100668.97;;;7.22;78.61
17764;BME280;22245;52.832;13.816;2023-02-03T12:28:49;100687.19;;;7.27;76.70
17764;BME280;22245;52.832;13.816;2023-02-03T12:32:20;100664.59;;;7.34;76.88
17764;BME280;22245;52.832;13.816;2023-02-03T12:35:49;100663.41;;;7.38;75.85
17764;BME280;22245;52.832;13.816;2023-02-03T12:39:18;100651.94;;;7.38;75.21
17764;BME280;22245;52.832;13.816;2023-02-03T12:42:43;100722.13;;;7.32;73.12
17764;BME280;22245;52.832;13.816;2023-02-03T12:46:12;100713.81;;;7.13;74.44
17764;BME280;22245;52.832;13.816;2023-02-03T12:49:41;100695.84;;;6.92;74.73
17764;BME280;22245;52.832;13.816;2023-02-03T12:53:10;100700.41;;;6.90;75.85
17764;BME280;22245;52.832;13.816;2023-02-03T12:56:38;100706.97;;;6.84;75.24
17764;BME280;22245;52.832;13.816;2023-02-03T13:00:10;100699.69;;;6.75;75.34
17764;BME280;22245;52.832;13.816;2023-02-03T13:03:40;100738.00;;;6.56;75.10
17764;BME280;22245;52.832;13.816;2023-02-03T13:07:07;100739.06;;;6.54;75.32
17764;BME280;22245;52.832;13.816;2023-02-03T13:10:37;100732.59;;;6.58;75.74
17764;BME280;22245;52.832;13.816;2023-02-03T13:14:14;100742.69;;;6.65;74.22
17764;BME280;22245;52.832;13.816;2023-02-03T13:17:44;100738.22;;;6.66;73.43
17764;BME280;22245;52.832;13.816;2023-02-03T13:21:09;100723.06;;;6.55;72.78
17764;BME280;22245;52.832;13.816;2023-02-03T13:24:33;100721.06;;;6.46;72.69
17764;BME280;22245;52.832;13.816;2023-02-03T13:28:01;100749.63;;;6.41;72.95
17764;BME280;22245;52.832;13.816;2023-02-03T13:31:40;100732.50;;;6.46;73.14
17764;BME280;22245;52.832;13.816;2023-02-03T13:35:16;100731.00;;;6.42;73.09
17764;BME280;22245;52.832;13.816;2023-02-03T13:39:26;100743.91;;;6.47;72.78
17764;BME280;22245;52.832;13.816;2023-02-03T13:42:54;100750.81;;;6.49;72.80
17764;BME280;22245;52.832;13.816;2023-02-03T13:46:20;100742.97;;;6.48;73.02
17764;BME280;22245;52.832;13.816;2023-02-03T13:49:45;100757.06;;;6.48;73.44
17764;BME280;22245;52.832;13.816;2023-02-03T13:53:15;100746.34;;;6.50;73.33
17764;BME280;22245;52.832;13.816;2023-02-03T13:56:38;100762.97;;;6.52;73.96
17764;BME280;22245;52.832;13.816;2023-02-03T14:00:04;100765.41;;;6.55;73.89
17764;BME280;22245;52.832;13.816;2023-02-03T14:03:43;100776.34;;;6.63;73.83
17764;BME280;22245;52.832;13.816;2023-02-03T14:07:25;100753.25;;;6.65;74.20
17764;BME280;22245;52.832;13.816;2023-02-03T14:18:33;100761.50;;;6.74;73.48
17764;BME280;22245;52.832;13.816;2023-02-03T14:21:57;100769.75;;;6.69;73.50
17764;BME280;22245;52.832;13.816;2023-02-03T14:25:21;100751.97;;;6.71;72.84
17764;BME280;22245;52.832;13.816;2023-02-03T14:28:45;100747.94;;;6.78;72.66
17764;BME280;22245;52.832;13.816;2023-02-03T14:32:08;100763.50;;;6.70;73.58
17764;BME280;22245;52.832;13.816;2023-02-03T14:35:33;100758.97;;;6.72;72.51
17764;BME280;22245;52.832;13.816;2023-02-03T14:38:58;100758.53;;;6.78;72.74
17764;BME280;22245;52.832;13.816;2023-02-03T14:50:01;100792.94;;;6.78;75.67
17764;BME280;22245;52.832;13.816;2023-02-03T14:53:46;100814.44;;;6.61;77.57
17764;BME280;22245;52.832;13.816;2023-02-03T14:57:25;100845.44;;;6.59;79.36
17764;BME280;22245;52.832;13.816;2023-02-03T15:00:52;100834.94;;;6.44;79.52
17764;BME280;22245;52.832;13.816;2023-02-03T15:04:21;100817.16;;;6.46;80.26
17764;BME280;22245;52.832;13.816;2023-02-03T15:07:44;100809.13;;;6.48;80.28
17764;BME280;22245;52.832;13.816;2023-02-03T15:11:24;100803.41;;;6.54;80.01
17764;BME280;22245;52.832;13.816;2023-02-03T15:14:46;100793.25;;;6.48;80.32
17764;BME280;22245;52.832;13.816;2023-02-03T15:18:20;100800.19;;;6.36;81.16
17764;BME280;22245;52.832;13.816;2023-02-03T15:21:42;100794.59;;;6.41;81.05
17764;BME280;22245;52.832;13.816;2023-02-03T15:25:15;100793.44;;;6.45;80.51
17764;BME280;22245;52.832;13.816;2023-02-03T15:28:39;100792.19;;;6.50;80.05
17764;BME280;22245;52.832;13.816;2023-02-03T15:32:06;100781.63;;;6.50;79.03
17764;BME280;22245;52.832;13.816;2023-02-03T15:35:30;100796.63;;;6.50;78.55
17764;BME280;22245;52.832;13.816;2023-02-03T15:38:57;100805.31;;;6.52;77.35
17764;BME280;22245;52.832;13.816;2023-02-03T15:42:29;100816.97;;;6.49;78.02
17764;BME280;22245;52.832;13.816;2023-02-03T15:45:59;100821.31;;;6.50;77.58
17764;BME280;22245;52.832;13.816;2023-02-03T15:49:27;100840.56;;;6.53;77.58
17764;BME280;22245;52.832;13.816;2023-02-03T15:52:51;100838.50;;;6.43;78.18
17764;BME280;22245;52.832;13.816;2023-02-03T15:56:27;100827.53;;;6.49;78.22
17764;BME280;22245;52.832;13.816;2023-02-03T15:59:55;100866.16;;;6.52;78.15
17764;BME280;22245;52.832;13.816;2023-02-03T16:03:21;100853.34;;;6.46;78.10
17764;BME280;22245;52.832;13.816;2023-02-03T16:06:47;100882.25;;;6.49;78.48
17764;BME280;22245;52.832;13.816;2023-02-03T16:10:24;100890.84;;;6.53;78.89
17764;BME280;22245;52.832;13.816;2023-02-03T16:13:46;100891.03;;;6.49;79.06
17764;BME280;22245;52.832;13.816;2023-02-03T16:17:21;100892.53;;;6.54;79.64
17764;BME280;22245;52.832;13.816;2023-02-03T16:20:49;100902.47;;;6.50;80.68
17764;BME280;22245;52.832;13.816;2023-02-03T16:24:34;100907.88;;;6.48;80.75
17764;BME280;22245;52.832;13.816;2023-02-03T16:27:58;100907.88;;;6.48;81.00
17764;BME280;22245;52.832;13.816;2023-02-03T16:31:42;100922.75;;;6.36;81.66
17764;BME280;22245;52.832;13.816;2023-02-03T16:35:22;100920.84;;;6.39;81.94
17764;BME280;22245;52.832;13.816;2023-02-03T16:39:08;100914.69;;;6.38;82.31
17764;BME280;22245;52.832;13.816;2023-02-03T16:42:49;100930.97;;;6.32;82.98
17764;BME280;22245;52.832;13.816;2023-02-03T16:46:28;100922.94;;;6.33;83.18
17764;BME280;22245;52.832;13.816;2023-02-03T16:50:11;100925.59;;;6.33;83.12
17764;BME280;22245;52.832;13.816;2023-02-03T16:53:58;100926.94;;;6.26;83.17
17764;BME280;22245;52.832;13.816;2023-02-03T16:57:21;100926.06;;;6.26;84.09
17764;BME280;22245;52.832;13.816;2023-02-03T17:00:43;100929.31;;;6.16;84.48
17764;BME280;22245;52.832;13.816;2023-02-03T17:04:05;100931.84;;;6.18;84.48
17764;BME280;22245;52.832;13.816;2023-02-03T17:07:27;100935.44;;;6.17;83.91
17764;BME280;22245;52.832;13.816;2023-02-03T17:10:49;100934.69;;;6.15;84.55
17764;BME280;22245;52.832;13.816;2023-02-03T17:14:13;100934.22;;;6.22;84.43
17764;BME280;22245;52.832;13.816;2023-02-03T17:17:35;100941.09;;;6.25;83.85
17764;BME280;22245;52.832;13.816;2023-02-03T17:21:03;100936.94;;;6.21;83.56
17764;BME280;22245;52.832;13.816;2023-02-03T17:24:25;100962.56;;;6.20;82.85
17764;BME280;22245;52.832;13.816;2023-02-03T17:27:47;100938.81;;;6.19;82.07
17764;BME280;22245;52.832;13.816;2023-02-03T17:31:13;100936.66;;;6.26;81.44
17764;BME280;22245;52.832;13.816;2023-02-03T17:34:35;100939.00;;;6.30;81.17
17764;BME280;22245;52.832;13.816;2023-02-03T17:37:57;100941.66;;;6.30;80.78
17764;BME280;22245;52.832;13.816;2023-02-03T17:41:20;100942.69;;;6.28;80.60
17764;BME280;22245;52.832;13.816;2023-02-03T17:44:59;100948.53;;;6.33;80.24
17764;BME280;22245;52.832;13.816;2023-02-03T17:48:40;100950.22;;;6.34;79.58
17764;BME280;22245;52.832;13.816;2023-02-03T17:52:19;100956.28;;;6.36;79.72
17764;BME280;22245;52.832;13.816;2023-02-03T17:56:04;100963.75;;;6.29;79.20
17764;BME280;22245;52.832;13.816;2023-02-03T17:59:26;100980.47;;;6.30;78.89
17764;BME280;22245;52.832;13.816;2023-02-03T18:02:48;100959.31;;;6.30;78.64
17764;BME280;22245;52.832;13.816;2023-02-03T18:06:13;100967.72;;;6.36;78.31
17764;BME280;22245;52.832;13.816;2023-02-03T18:09:35;100957.03;;;6.38;78.22
17764;BME280;22245;52.832;13.816;2023-02-03T18:12:57;100964.88;;;6.40;78.21
17764;BME280;22245;52.832;13.816;2023-02-03T18:16:21;100967.41;;;6.41;77.25
17764;BME280;22245;52.832;13.816;2023-02-03T18:19:44;100980.75;;;6.40;77.77